createdAt,value
2018-11-03T00:00:39.249Z,91.80
2018-11-03T00:03:07.942Z,91.70
2018-11-03T00:22:40.552Z,92.20
2018-11-03T00:25:10.290Z,92.10
2018-11-03T00:27:39.106Z,92.00
2018-11-03T00:47:11.568Z,91.70
2018-11-03T00:49:40.892Z,91.70
2018-11-03T00:52:09.926Z,91.80
2018-11-03T00:54:45.821Z,91.80
2018-11-03T00:57:14.630Z,91.80
2018-11-03T00:59:43.289Z,91.90
2018-11-03T01:02:11.942Z,91.80
2018-11-03T01:04:40.682Z,91.80
2018-11-03T01:07:09.485Z,91.80
2018-11-03T01:09:38.376Z,91.80
2018-11-03T01:12:07.032Z,91.80
2018-11-03T01:14:35.905Z,91.80
2018-11-03T01:17:04.684Z,91.80
2018-11-03T01:19:33.340Z,91.80
2018-11-03T01:22:02.111Z,91.80
2018-11-03T01:24:30.836Z,91.90
2018-11-03T01:26:59.677Z,91.90
2018-11-03T01:29:28.407Z,91.90
2018-11-03T01:49:01.946Z,91.80
2018-11-03T01:51:32.266Z,91.80
2018-11-03T01:54:01.950Z,91.80
2018-11-03T01:56:31.050Z,91.70
2018-11-03T02:16:03.087Z,91.90
2018-11-03T02:18:31.861Z,91.80
2018-11-03T02:21:00.939Z,91.80
2018-11-03T02:40:34.364Z,92.20
2018-11-03T02:43:09.241Z,91.80
2018-11-03T02:45:37.862Z,91.90
2018-11-03T02:48:06.604Z,91.90
2018-11-03T02:50:35.329Z,91.90
2018-11-03T02:53:04.002Z,91.90
2018-11-03T02:55:34.244Z,92.00
2018-11-03T02:58:02.999Z,91.90
2018-11-03T03:00:31.743Z,92.00
2018-11-03T03:03:01.464Z,92.30
2018-11-03T03:05:30.252Z,91.90
2018-11-03T03:07:59.007Z,91.90
2018-11-03T03:10:27.847Z,91.90
2018-11-03T03:12:56.528Z,91.90
2018-11-03T03:15:25.243Z,91.90
2018-11-03T03:17:54.142Z,91.90
2018-11-03T03:20:22.686Z,92.00
2018-11-03T03:22:51.394Z,92.00
2018-11-03T03:25:20.195Z,92.00
2018-11-03T03:27:49.009Z,92.00
2018-11-03T03:30:17.834Z,92.00
2018-11-03T03:32:46.538Z,91.90
2018-11-03T03:35:15.193Z,91.90
2018-11-03T03:37:43.926Z,92.00
2018-11-03T03:40:12.705Z,92.00
2018-11-03T03:42:41.479Z,92.00
2018-11-03T03:45:10.796Z,92.00
2018-11-03T03:47:39.538Z,92.00
2018-11-03T03:58:48.180Z,91.90
2018-11-03T04:01:16.914Z,91.90
2018-11-03T04:03:45.665Z,91.80
2018-11-03T04:06:14.254Z,91.80
2018-11-03T04:08:42.981Z,91.90
2018-11-03T04:11:11.778Z,91.90
2018-11-03T04:13:40.427Z,92.00
2018-11-03T04:16:09.047Z,92.00
2018-11-03T04:18:37.627Z,92.00
2018-11-03T04:21:06.484Z,91.90
2018-11-03T04:23:35.204Z,92.00
2018-11-03T04:26:04.006Z,92.00
2018-11-03T04:28:32.951Z,92.00
2018-11-03T04:31:01.660Z,92.00
2018-11-03T04:33:30.454Z,92.00
2018-11-03T04:35:59.124Z,92.00
2018-11-03T04:55:33.155Z,91.80
2018-11-03T04:58:03.042Z,91.80
2018-11-03T05:00:31.994Z,91.80
2018-11-03T05:03:00.731Z,91.80
2018-11-03T05:05:31.189Z,91.80
2018-11-03T05:08:00.025Z,91.90
2018-11-03T05:10:31.721Z,91.90
2018-11-03T05:13:00.874Z,92.00
2018-11-03T05:15:29.926Z,91.90
2018-11-03T07:18:04.336Z,91.60
2018-11-03T07:26:19.883Z,91.70
2018-11-03T07:28:52.293Z,91.80
2018-11-03T07:31:35.070Z,91.80
2018-11-03T07:34:08.513Z,91.80
2018-11-03T07:36:58.753Z,91.70
2018-11-03T07:40:01.800Z,91.70
2018-11-03T07:42:44.973Z,91.60
2018-11-03T07:45:14.513Z,91.60
2018-11-03T07:47:43.328Z,91.60
2018-11-03T07:50:14.169Z,91.60
2018-11-03T07:52:53.336Z,91.70
2018-11-03T07:55:21.886Z,91.60
2018-11-03T07:57:50.786Z,91.70
2018-11-03T08:00:19.549Z,91.60
2018-11-03T08:02:47.985Z,91.60
2018-11-03T08:05:16.689Z,91.60
2018-11-03T08:07:46.382Z,91.60
2018-11-03T08:10:15.334Z,91.60
2018-11-03T08:12:45.307Z,91.60
2018-11-03T08:15:39.504Z,91.60
2018-11-03T08:18:07.979Z,91.80
2018-11-03T08:20:36.503Z,91.50
2018-11-03T08:23:05.155Z,91.80
2018-11-03T08:25:33.734Z,91.50
2018-11-03T08:28:03.406Z,91.50
2018-11-03T08:30:32.021Z,91.50
2018-11-03T08:33:00.615Z,91.50
2018-11-03T08:35:33.472Z,91.50
2018-11-03T08:38:02.095Z,91.50
2018-11-03T08:40:31.447Z,91.50
2018-11-03T08:43:00.064Z,91.40
2018-11-03T08:45:32.966Z,91.50
2018-11-03T08:48:07.175Z,91.50
2018-11-03T08:50:35.948Z,91.50
2018-11-03T08:53:05.103Z,91.60
2018-11-03T08:58:27.521Z,91.60
2018-11-03T09:00:56.245Z,91.60
2018-11-03T09:03:26.124Z,91.60
2018-11-03T09:05:55.146Z,91.60
2018-11-03T09:08:54.705Z,91.60
2018-11-03T09:11:24.111Z,91.60
2018-11-03T09:13:56.271Z,91.60
2018-11-03T09:16:25.141Z,91.70
2018-11-03T09:18:53.911Z,91.70
2018-11-03T09:21:23.684Z,91.70
2018-11-03T09:24:07.870Z,91.60
2018-11-03T09:26:45.294Z,91.60
2018-11-03T09:29:14.150Z,91.60
2018-11-03T09:31:42.789Z,91.60
2018-11-03T09:34:11.338Z,91.60
2018-11-03T09:36:39.998Z,91.60
2018-11-03T09:39:10.610Z,91.60
2018-11-03T09:41:39.755Z,91.60
2018-11-03T09:44:08.350Z,91.60
2018-11-03T09:46:37.042Z,91.60
2018-11-03T09:49:05.865Z,91.50
2018-11-03T09:51:34.447Z,91.60
2018-11-03T09:54:03.074Z,91.50
2018-11-03T09:56:31.830Z,91.50
2018-11-03T09:59:00.372Z,91.60
2018-11-03T10:01:29.102Z,91.60
2018-11-03T10:03:57.642Z,91.60
2018-11-03T10:06:26.406Z,91.50
2018-11-03T10:08:54.833Z,91.50
2018-11-03T10:11:23.905Z,91.50
2018-11-03T10:14:08.860Z,91.70
2018-11-03T10:16:37.555Z,91.50
2018-11-03T10:19:06.220Z,91.50
2018-11-03T10:21:34.921Z,91.50
2018-11-03T10:24:03.551Z,91.50
2018-11-03T10:26:32.089Z,91.40
2018-11-03T10:29:00.647Z,91.30
2018-11-03T10:31:29.154Z,91.30
2018-11-03T10:33:57.620Z,91.30
2018-11-03T10:36:26.135Z,91.30
2018-11-03T10:38:54.499Z,91.30
2018-11-03T10:41:22.815Z,91.30
2018-11-03T10:43:51.418Z,91.30
2018-11-03T10:46:20.056Z,91.20
2018-11-03T10:48:48.682Z,91.10
2018-11-03T10:51:17.208Z,91.10
2018-11-03T10:53:45.660Z,91.10
2018-11-03T10:56:15.123Z,91.10
2018-11-03T10:58:43.607Z,91.20
2018-11-03T11:01:17.569Z,91.10
2018-11-03T11:03:57.860Z,91.10
2018-11-03T11:06:31.643Z,91.10
2018-11-03T11:09:05.586Z,91.10
2018-11-03T11:11:48.533Z,91.10
2018-11-03T11:14:17.672Z,91.20
2018-11-03T11:17:00.348Z,91.10
2018-11-03T11:19:28.913Z,91.40
2018-11-03T11:21:57.344Z,91.10
2018-11-03T11:24:25.754Z,91.10
2018-11-03T11:26:54.112Z,91.10
2018-11-03T11:29:22.499Z,91.00
2018-11-03T11:31:50.882Z,91.10
2018-11-03T11:34:20.763Z,91.00
2018-11-03T11:36:49.310Z,91.00
2018-11-03T11:39:17.884Z,91.00
2018-11-03T11:41:46.409Z,91.00
2018-11-03T11:44:14.707Z,90.90
2018-11-03T11:46:43.371Z,90.80
2018-11-03T11:49:12.049Z,90.80
2018-11-03T11:51:40.715Z,90.80
2018-11-03T11:54:09.238Z,90.70
2018-11-03T11:56:37.652Z,90.80
2018-11-03T11:59:06.007Z,90.80
2018-11-03T12:01:34.537Z,90.80
2018-11-03T12:04:03.014Z,90.80
2018-11-03T12:06:31.542Z,90.80
2018-11-03T12:09:00.229Z,90.70
2018-11-03T12:11:44.893Z,90.70
2018-11-03T12:14:13.630Z,90.60
2018-11-03T12:16:42.119Z,90.60
2018-11-03T12:19:10.571Z,90.60
2018-11-03T12:21:39.254Z,90.60
2018-11-03T12:24:07.731Z,90.60
2018-11-03T12:26:36.625Z,90.50
2018-11-03T12:29:06.371Z,90.50
2018-11-03T12:31:36.947Z,90.40
2018-11-03T12:34:06.502Z,90.30
2018-11-03T12:36:36.630Z,90.30
2018-11-03T12:39:08.290Z,90.30
2018-11-03T12:41:39.042Z,90.20
2018-11-03T12:44:07.430Z,90.10
2018-11-03T12:46:41.894Z,90.20
2018-11-03T12:49:10.209Z,90.10
2018-11-03T12:51:38.625Z,90.00
2018-11-03T12:54:07.279Z,89.90
2018-11-03T12:56:35.641Z,89.90
2018-11-03T12:59:04.051Z,89.90
2018-11-03T13:01:33.248Z,89.70
2018-11-03T13:04:01.637Z,89.40
2018-11-03T13:06:29.965Z,89.20
2018-11-03T13:08:58.466Z,89.30
2018-11-03T13:11:26.954Z,88.70
2018-11-03T13:13:55.470Z,89.00
2018-11-03T13:16:23.858Z,88.40
2018-11-03T13:18:52.514Z,88.50
2018-11-03T13:21:20.875Z,88.00
2018-11-03T13:23:49.267Z,87.70
2018-11-03T13:26:18.084Z,87.60
2018-11-03T13:28:46.491Z,87.70
2018-11-03T13:31:14.850Z,87.80
2018-11-03T13:33:43.262Z,87.90
2018-11-03T13:36:11.754Z,87.60
2018-11-03T13:38:40.219Z,87.60
2018-11-03T13:41:08.595Z,87.40
2018-11-03T13:43:37.093Z,87.90
2018-11-03T13:46:25.383Z,87.70
2018-11-03T13:49:03.763Z,87.70
2018-11-03T13:51:32.500Z,87.40
2018-11-03T13:54:02.143Z,87.00
2018-11-03T13:56:31.999Z,87.00
2018-11-03T13:59:00.820Z,87.00
2018-11-03T14:04:20.863Z,87.00
2018-11-03T14:06:49.615Z,86.50
2018-11-03T14:09:18.387Z,86.80
2018-11-03T14:11:47.099Z,86.80
2018-11-03T14:14:20.243Z,86.80
2018-11-03T14:25:25.541Z,86.70
2018-11-03T14:27:54.495Z,86.70
2018-11-03T14:30:23.394Z,86.50
2018-11-03T14:32:56.331Z,86.20
2018-11-03T14:41:07.774Z,86.30
2018-11-03T14:43:36.355Z,86.20
2018-11-03T14:46:05.093Z,86.30
2018-11-03T14:48:33.810Z,86.40
2018-11-03T14:51:03.012Z,86.70
2018-11-03T14:53:31.834Z,86.70
2018-11-03T14:59:58.949Z,86.90
2018-11-03T15:02:27.560Z,87.00
2018-11-03T15:04:56.006Z,86.90
2018-11-03T15:07:24.748Z,86.80
2018-11-03T15:09:53.331Z,86.80
2018-11-03T15:21:02.357Z,86.90
2018-11-03T15:23:33.593Z,86.80
2018-11-03T15:26:03.151Z,86.80
2018-11-03T15:28:31.799Z,86.90
2018-11-03T15:31:00.437Z,86.90
2018-11-03T15:33:29.019Z,86.90
2018-11-03T15:35:58.591Z,86.80
2018-11-03T15:38:27.178Z,86.60
2018-11-03T15:40:55.930Z,86.60
2018-11-03T15:43:24.536Z,86.70
2018-11-03T15:45:53.099Z,86.70
2018-11-03T15:48:21.815Z,86.60
2018-11-03T15:51:06.643Z,86.60
2018-11-03T15:53:35.307Z,86.70
2018-11-03T15:56:03.786Z,86.70
2018-11-03T15:58:32.507Z,86.80
2018-11-03T16:01:01.047Z,86.90
2018-11-03T16:03:29.529Z,87.00
2018-11-03T16:05:59.654Z,87.10
2018-11-03T16:08:29.882Z,87.10
2018-11-03T16:10:58.353Z,87.30
2018-11-03T16:13:26.983Z,87.40
2018-11-03T16:15:59.622Z,87.40
2018-11-03T16:18:28.594Z,87.50
2018-11-03T16:20:57.111Z,87.60
2018-11-03T16:23:28.937Z,87.80
2018-11-03T16:25:57.666Z,88.00
2018-11-03T16:28:26.415Z,88.10
2018-11-03T16:31:03.790Z,88.10
2018-11-03T16:33:32.418Z,88.20
2018-11-03T16:36:01.151Z,88.20
2018-11-03T16:38:29.988Z,88.30
2018-11-03T16:40:58.520Z,88.30
2018-11-03T16:43:27.228Z,88.30
2018-11-03T16:46:11.631Z,88.20
2018-11-03T16:48:40.414Z,88.40
2018-11-03T16:51:09.293Z,88.50
2018-11-03T17:07:23.368Z,88.40
2018-11-03T17:12:47.262Z,88.40
2018-11-03T17:15:16.067Z,88.40
2018-11-03T17:17:44.721Z,88.30
2018-11-03T17:20:13.051Z,88.30
2018-11-03T17:22:41.677Z,88.30
2018-11-03T17:25:11.280Z,88.40
2018-11-03T17:27:40.123Z,88.40
2018-11-03T17:30:12.051Z,88.40
2018-11-03T17:32:40.569Z,88.50
2018-11-03T17:35:09.279Z,88.60
2018-11-03T17:37:38.667Z,88.70
2018-11-03T17:40:08.200Z,88.80
2018-11-03T17:42:36.703Z,88.80
2018-11-03T17:45:06.188Z,88.90
2018-11-03T17:47:35.186Z,89.00
2018-11-03T17:50:03.955Z,89.10
2018-11-03T17:52:36.443Z,89.20
2018-11-03T17:55:05.538Z,89.20
2018-11-03T17:57:34.042Z,89.20
2018-11-03T18:00:02.447Z,89.20
2018-11-03T18:02:30.858Z,89.40
2018-11-03T18:04:59.380Z,89.60
2018-11-03T18:07:28.316Z,89.50
2018-11-03T18:09:56.712Z,89.50
2018-11-03T18:12:25.078Z,89.50
2018-11-03T18:14:54.559Z,89.40
2018-11-03T18:17:22.913Z,89.50
2018-11-03T18:19:51.276Z,89.40
2018-11-03T18:22:19.587Z,89.60
2018-11-03T18:24:47.844Z,89.70
2018-11-03T18:27:16.286Z,89.60
2018-11-03T18:29:44.672Z,89.80
2018-11-03T18:32:13.017Z,89.80
2018-11-03T18:34:41.675Z,89.90
2018-11-03T18:37:10.164Z,90.00
2018-11-03T18:39:39.241Z,90.00
2018-11-03T18:42:07.615Z,90.00
2018-11-03T18:44:36.079Z,90.10
2018-11-03T18:47:04.932Z,90.10
2018-11-03T18:49:33.399Z,90.10
2018-11-03T18:52:01.918Z,90.10
2018-11-03T18:54:30.588Z,90.10
2018-11-03T18:56:58.998Z,90.10
2018-11-03T18:59:27.603Z,90.10
2018-11-03T19:01:57.016Z,90.00
2018-11-03T19:04:25.589Z,90.00
2018-11-03T19:06:54.135Z,90.00
2018-11-03T19:09:22.646Z,89.90
2018-11-03T19:11:51.085Z,89.90
2018-11-03T19:14:19.722Z,90.00
2018-11-03T19:16:48.190Z,90.00
2018-11-03T19:19:16.696Z,90.00
2018-11-03T19:21:45.238Z,90.00
2018-11-03T19:24:34.507Z,90.00
2018-11-03T19:27:03.063Z,89.90
2018-11-03T19:29:31.757Z,89.80
2018-11-03T19:32:00.316Z,89.80
2018-11-03T19:34:28.758Z,89.70
2018-11-03T19:36:57.359Z,89.80
2018-11-03T19:39:25.833Z,89.80
2018-11-03T19:41:54.366Z,89.80
2018-11-03T19:44:22.871Z,89.80
2018-11-03T19:46:51.515Z,89.80
2018-11-03T19:49:19.949Z,89.90
2018-11-03T19:51:48.659Z,89.80
2018-11-03T19:57:26.704Z,89.90
2018-11-03T19:59:55.016Z,89.80
2018-11-03T20:02:23.595Z,89.90
2018-11-03T20:04:51.833Z,89.90
2018-11-03T20:07:21.304Z,89.80
2018-11-03T20:09:49.608Z,89.90
2018-11-03T20:12:17.869Z,89.90
2018-11-03T20:14:46.158Z,89.80
2018-11-03T20:17:14.710Z,89.90
2018-11-03T20:19:43.041Z,90.00
2018-11-03T20:22:11.348Z,90.00
2018-11-03T20:27:29.978Z,90.00
2018-11-03T20:29:58.206Z,90.00
2018-11-03T20:32:26.588Z,90.00
2018-11-03T20:34:54.963Z,89.80
2018-11-03T20:37:25.057Z,89.90
2018-11-03T20:39:53.427Z,89.80
2018-11-03T20:42:21.785Z,89.80
2018-11-03T20:44:50.170Z,89.90
2018-11-03T20:47:20.071Z,90.00
2018-11-03T20:49:48.315Z,90.00
2018-11-03T20:52:16.591Z,90.00
2018-11-03T20:54:44.959Z,90.00
2018-11-03T20:57:13.219Z,90.10
2018-11-03T20:59:41.446Z,90.00
2018-11-03T21:02:09.740Z,90.00
2018-11-03T21:04:37.975Z,90.10
2018-11-03T21:07:06.355Z,90.00
2018-11-03T21:09:34.610Z,90.00
2018-11-03T21:12:02.835Z,90.00
2018-11-03T21:14:31.091Z,90.00
2018-11-03T21:16:59.338Z,90.10
2018-11-03T21:19:27.614Z,90.10
2018-11-03T21:22:11.558Z,90.10
2018-11-03T21:24:39.858Z,90.10
2018-11-03T21:27:09.628Z,90.20
2018-11-03T21:29:38.110Z,90.10
2018-11-03T21:32:07.067Z,90.10
2018-11-03T21:34:35.283Z,90.20
2018-11-03T21:37:03.702Z,90.20
2018-11-03T21:39:31.958Z,90.20
2018-11-03T21:42:00.323Z,90.10
2018-11-03T21:44:28.553Z,90.00
2018-11-03T21:46:56.827Z,90.00
2018-11-03T21:49:25.235Z,90.10
2018-11-03T21:51:53.451Z,90.00
2018-11-03T21:54:21.829Z,90.10
2018-11-03T21:56:56.153Z,90.10
2018-11-03T21:59:24.378Z,90.20
2018-11-03T22:01:52.730Z,90.20
2018-11-03T22:04:20.983Z,90.30
2018-11-03T22:06:51.843Z,90.30
2018-11-03T22:09:20.069Z,90.20
2018-11-03T22:11:48.324Z,90.30
2018-11-03T22:14:16.520Z,90.30
2018-11-03T22:16:44.746Z,90.30
2018-11-03T22:19:12.947Z,90.30
2018-11-03T22:21:46.176Z,90.30
2018-11-03T22:24:18.270Z,90.30
2018-11-03T22:26:46.554Z,90.20
2018-11-03T22:29:14.814Z,90.20
2018-11-03T22:31:42.997Z,90.20
2018-11-03T22:34:11.274Z,90.20
2018-11-03T22:36:39.699Z,90.30
2018-11-03T22:39:08.420Z,90.30
2018-11-03T22:41:36.654Z,90.40
2018-11-03T22:44:05.034Z,90.40
2018-11-03T22:46:33.334Z,90.40
2018-11-03T22:49:01.658Z,90.40
2018-11-03T22:51:31.615Z,90.40
2018-11-03T22:54:00.067Z,90.40
2018-11-03T22:56:28.345Z,90.40
2018-11-03T22:58:56.574Z,90.30
2018-11-03T23:01:24.786Z,90.40
2018-11-03T23:03:53.026Z,90.40
2018-11-03T23:06:21.217Z,90.30
2018-11-03T23:08:49.542Z,90.40
2018-11-03T23:11:19.821Z,90.40
2018-11-03T23:13:48.065Z,90.40
2018-11-03T23:16:16.226Z,90.40
2018-11-03T23:18:44.463Z,90.40
2018-11-03T23:21:12.669Z,90.50
2018-11-03T23:23:41.048Z,90.50
2018-11-03T23:26:09.248Z,90.60
2018-11-03T23:28:37.499Z,90.60
2018-11-03T23:31:05.698Z,90.60
2018-11-03T23:33:38.029Z,90.60
2018-11-03T23:36:06.227Z,90.60
2018-11-03T23:38:34.441Z,90.60
2018-11-03T23:41:02.640Z,90.50
2018-11-03T23:43:32.238Z,90.50
2018-11-03T23:46:00.422Z,90.50
2018-11-03T23:48:28.635Z,90.50
2018-11-03T23:50:56.863Z,90.50
2018-11-03T23:53:25.276Z,90.50
2018-11-03T23:55:58.826Z,90.60
2018-11-03T23:58:27.024Z,90.50
